sensor_id;sensor_type;location;lat;lon;timestamp;P1;durP1;ratioP1;P2;durP2;ratioP2
31224;SDS011;17847;31.524;74.366;2023-05-07T00:00:07;12.32;;;3.88;;
31224;SDS011;17847;31.524;74.366;2023-05-07T00:02:37;8.95;;;3.85;;
31224;SDS011;17847;31.524;74.366;2023-05-07T00:05:07;6.70;;;4.28;;
31224;SDS011;17847;31.524;74.366;2023-05-07T00:07:37;5.93;;;3.58;;
31224;SDS011;17847;31.524;74.366;2023-05-07T00:10:06;7.30;;;3.30;;
31224;SDS011;17847;31.524;74.366;2023-05-07T00:12:36;4.35;;;1.92;;
31224;SDS011;17847;31.524;74.366;2023-05-07T00:15:06;2.75;;;1.83;;
31224;SDS011;17847;31.524;74.366;2023-05-07T00:17:36;3.60;;;1.80;;
31224;SDS011;17847;31.524;74.366;2023-05-07T00:20:06;3.17;;;1.95;;
31224;SDS011;17847;31.524;74.366;2023-05-07T00:22:36;3.58;;;1.98;;
31224;SDS011;17847;31.524;74.366;2023-05-07T00:25:06;2.88;;;1.40;;
31224;SDS011;17847;31.524;74.366;2023-05-07T00:27:35;3.17;;;1.48;;
31224;SDS011;17847;31.524;74.366;2023-05-07T00:30:05;3.67;;;1.38;;
31224;SDS011;17847;31.524;74.366;2023-05-07T00:32:36;4.45;;;1.38;;
31224;SDS011;17847;31.524;74.366;2023-05-07T00:35:06;2.78;;;1.05;;
31224;SDS011;17847;31.524;74.366;2023-05-07T00:37:36;6.93;;;1.30;;
31224;SDS011;17847;31.524;74.366;2023-05-07T00:40:06;5.70;;;1.50;;
31224;SDS011;17847;31.524;74.366;2023-05-07T00:42:36;2.03;;;0.90;;
31224;SDS011;17847;31.524;74.366;2023-05-07T00:45:06;2.67;;;1.08;;
31224;SDS011;17847;31.524;74.366;2023-05-07T00:47:35;3.58;;;1.00;;
31224;SDS011;17847;31.524;74.366;2023-05-07T00:50:05;1.70;;;1.20;;
31224;SDS011;17847;31.524;74.366;2023-05-07T00:52:36;4.00;;;1.15;;
31224;SDS011;17847;31.524;74.366;2023-05-07T00:55:06;2.60;;;1.35;;
31224;SDS011;17847;31.524;74.366;2023-05-07T00:57:37;2.38;;;1.08;;
31224;SDS011;17847;31.524;74.366;2023-05-07T01:00:08;1.70;;;1.08;;
31224;SDS011;17847;31.524;74.366;2023-05-07T01:02:39;2.63;;;0.90;;
31224;SDS011;17847;31.524;74.366;2023-05-07T01:05:11;2.97;;;1.05;;
31224;SDS011;17847;31.524;74.366;2023-05-07T01:07:44;2.45;;;1.13;;
31224;SDS011;17847;31.524;74.366;2023-05-07T01:10:14;2.72;;;1.13;;
31224;SDS011;17847;31.524;74.366;2023-05-07T01:12:45;7.15;;;1.00;;
31224;SDS011;17847;31.524;74.366;2023-05-07T01:15:16;1.35;;;0.70;;
31224;SDS011;17847;31.524;74.366;2023-05-07T01:17:47;3.83;;;1.05;;
31224;SDS011;17847;31.524;74.366;2023-05-07T01:20:25;1.13;;;0.88;;
31224;SDS011;17847;31.524;74.366;2023-05-07T01:22:56;2.05;;;0.90;;
31224;SDS011;17847;31.524;74.366;2023-05-07T01:25:26;4.00;;;0.80;;
31224;SDS011;17847;31.524;74.366;2023-05-07T01:27:58;1.42;;;0.82;;
31224;SDS011;17847;31.524;74.366;2023-05-07T01:30:34;5.18;;;1.00;;
31224;SDS011;17847;31.524;74.366;2023-05-07T01:33:08;1.58;;;0.60;;
31224;SDS011;17847;31.524;74.366;2023-05-07T01:35:40;1.67;;;0.80;;
31224;SDS011;17847;31.524;74.366;2023-05-07T01:38:13;3.50;;;0.85;;
31224;SDS011;17847;31.524;74.366;2023-05-07T01:40:44;1.50;;;0.77;;
31224;SDS011;17847;31.524;74.366;2023-05-07T01:43:14;2.20;;;0.90;;
31224;SDS011;17847;31.524;74.366;2023-05-07T01:45:44;3.55;;;1.13;;
31224;SDS011;17847;31.524;74.366;2023-05-07T01:48:14;1.45;;;0.60;;
31224;SDS011;17847;31.524;74.366;2023-05-07T01:50:44;2.20;;;1.00;;
31224;SDS011;17847;31.524;74.366;2023-05-07T01:53:14;2.70;;;0.80;;
31224;SDS011;17847;31.524;74.366;2023-05-07T01:55:43;1.65;;;0.90;;
31224;SDS011;17847;31.524;74.366;2023-05-07T01:58:13;2.05;;;0.70;;
31224;SDS011;17847;31.524;74.366;2023-05-07T02:00:43;4.05;;;0.88;;
31224;SDS011;17847;31.524;74.366;2023-05-07T02:03:12;3.50;;;1.08;;
31224;SDS011;17847;31.524;74.366;2023-05-07T02:05:52;1.20;;;0.60;;
31224;SDS011;17847;31.524;74.366;2023-05-07T02:08:36;2.25;;;1.35;;
31224;SDS011;17847;31.524;74.366;2023-05-07T02:11:06;2.33;;;1.05;;
31224;SDS011;17847;31.524;74.366;2023-05-07T02:13:36;1.83;;;0.82;;
31224;SDS011;17847;31.524;74.366;2023-05-07T02:16:06;5.68;;;0.95;;
31224;SDS011;17847;31.524;74.366;2023-05-07T02:18:37;3.13;;;1.10;;
31224;SDS011;17847;31.524;74.366;2023-05-07T02:21:07;2.58;;;1.20;;
31224;SDS011;17847;31.524;74.366;2023-05-07T02:23:36;2.45;;;0.93;;
31224;SDS011;17847;31.524;74.366;2023-05-07T02:26:05;1.95;;;0.80;;
31224;SDS011;17847;31.524;74.366;2023-05-07T02:28:35;8.77;;;1.95;;
31224;SDS011;17847;31.524;74.366;2023-05-07T02:31:05;5.60;;;0.95;;
31224;SDS011;17847;31.524;74.366;2023-05-07T02:33:35;4.07;;;1.33;;
31224;SDS011;17847;31.524;74.366;2023-05-07T02:36:10;2.50;;;1.30;;
31224;SDS011;17847;31.524;74.366;2023-05-07T02:38:47;4.50;;;1.70;;
31224;SDS011;17847;31.524;74.366;2023-05-07T02:41:17;3.38;;;1.67;;
31224;SDS011;17847;31.524;74.366;2023-05-07T02:43:47;2.40;;;1.48;;
31224;SDS011;17847;31.524;74.366;2023-05-07T02:46:17;3.85;;;1.35;;
31224;SDS011;17847;31.524;74.366;2023-05-07T02:48:52;2.75;;;1.25;;
31224;SDS011;17847;31.524;74.366;2023-05-07T02:51:22;3.88;;;1.58;;
31224;SDS011;17847;31.524;74.366;2023-05-07T02:53:54;4.25;;;2.38;;
31224;SDS011;17847;31.524;74.366;2023-05-07T02:56:25;3.45;;;1.17;;
31224;SDS011;17847;31.524;74.366;2023-05-07T02:58:55;6.32;;;1.60;;
31224;SDS011;17847;31.524;74.366;2023-05-07T03:01:29;4.22;;;1.30;;
31224;SDS011;17847;31.524;74.366;2023-05-07T03:04:04;3.10;;;1.50;;
31224;SDS011;17847;31.524;74.366;2023-05-07T03:06:34;2.65;;;1.42;;
31224;SDS011;17847;31.524;74.366;2023-05-07T03:09:03;2.50;;;1.63;;
31224;SDS011;17847;31.524;74.366;2023-05-07T03:11:32;3.22;;;1.55;;
31224;SDS011;17847;31.524;74.366;2023-05-07T03:14:02;6.95;;;1.70;;
31224;SDS011;17847;31.524;74.366;2023-05-07T03:16:31;2.75;;;1.45;;
31224;SDS011;17847;31.524;74.366;2023-05-07T03:19:01;3.42;;;1.70;;
31224;SDS011;17847;31.524;74.366;2023-05-07T03:21:30;5.85;;;2.10;;
31224;SDS011;17847;31.524;74.366;2023-05-07T03:24:02;3.13;;;1.55;;
31224;SDS011;17847;31.524;74.366;2023-05-07T03:26:32;4.88;;;1.95;;
31224;SDS011;17847;31.524;74.366;2023-05-07T03:29:02;4.13;;;1.63;;
31224;SDS011;17847;31.524;74.366;2023-05-07T03:31:31;5.55;;;1.92;;
31224;SDS011;17847;31.524;74.366;2023-05-07T03:34:01;4.10;;;1.70;;
31224;SDS011;17847;31.524;74.366;2023-05-07T03:36:30;6.05;;;1.90;;
31224;SDS011;17847;31.524;74.366;2023-05-07T03:39:00;4.35;;;1.90;;
31224;SDS011;17847;31.524;74.366;2023-05-07T03:41:36;4.97;;;1.52;;
31224;SDS011;17847;31.524;74.366;2023-05-07T03:44:05;12.23;;;2.00;;
31224;SDS011;17847;31.524;74.366;2023-05-07T03:46:36;4.78;;;1.33;;
31224;SDS011;17847;31.524;74.366;2023-05-07T03:49:07;5.45;;;1.73;;
31224;SDS011;17847;31.524;74.366;2023-05-07T03:51:36;11.35;;;2.35;;
31224;SDS011;17847;31.524;74.366;2023-05-07T03:54:07;6.40;;;1.60;;
31224;SDS011;17847;31.524;74.366;2023-05-07T03:56:41;4.05;;;1.50;;
31224;SDS011;17847;31.524;74.366;2023-05-07T03:59:12;3.58;;;1.70;;
31224;SDS011;17847;31.524;74.366;2023-05-07T04:01:44;3.10;;;1.55;;
31224;SDS011;17847;31.524;74.366;2023-05-07T04:04:16;4.00;;;1.40;;
31224;SDS011;17847;31.524;74.366;2023-05-07T04:06:46;4.20;;;1.67;;
31224;SDS011;17847;31.524;74.366;2023-05-07T04:09:15;4.15;;;1.77;;
31224;SDS011;17847;31.524;74.366;2023-05-07T04:11:46;2.90;;;1.63;;
31224;SDS011;17847;31.524;74.366;2023-05-07T04:14:16;7.00;;;1.65;;
31224;SDS011;17847;31.524;74.366;2023-05-07T04:16:45;3.40;;;1.45;;
31224;SDS011;17847;31.524;74.366;2023-05-07T04:19:15;2.42;;;1.20;;
31224;SDS011;17847;31.524;74.366;2023-05-07T04:21:49;5.20;;;1.50;;
31224;SDS011;17847;31.524;74.366;2023-05-07T04:24:19;5.72;;;1.50;;
31224;SDS011;17847;31.524;74.366;2023-05-07T04:26:48;2.85;;;1.45;;
31224;SDS011;17847;31.524;74.366;2023-05-07T04:29:20;4.25;;;1.33;;
31224;SDS011;17847;31.524;74.366;2023-05-07T04:31:50;4.15;;;1.80;;
31224;SDS011;17847;31.524;74.366;2023-05-07T04:34:19;4.28;;;1.50;;
31224;SDS011;17847;31.524;74.366;2023-05-07T04:36:50;3.25;;;1.77;;
31224;SDS011;17847;31.524;74.366;2023-05-07T04:39:20;8.02;;;2.40;;
31224;SDS011;17847;31.524;74.366;2023-05-07T04:41:50;8.48;;;1.67;;
31224;SDS011;17847;31.524;74.366;2023-05-07T04:44:19;6.40;;;1.67;;
31224;SDS011;17847;31.524;74.366;2023-05-07T04:46:49;4.82;;;1.58;;
31224;SDS011;17847;31.524;74.366;2023-05-07T04:49:18;4.28;;;1.50;;
31224;SDS011;17847;31.524;74.366;2023-05-07T04:51:49;3.58;;;1.33;;
31224;SDS011;17847;31.524;74.366;2023-05-07T04:54:21;3.45;;;1.48;;
31224;SDS011;17847;31.524;74.366;2023-05-07T04:56:51;4.32;;;1.92;;
31224;SDS011;17847;31.524;74.366;2023-05-07T04:59:20;5.53;;;1.75;;
31224;SDS011;17847;31.524;74.366;2023-05-07T05:01:50;4.30;;;1.92;;
31224;SDS011;17847;31.524;74.366;2023-05-07T05:04:19;6.60;;;1.83;;
31224;SDS011;17847;31.524;74.366;2023-05-07T05:06:49;4.85;;;2.33;;
31224;SDS011;17847;31.524;74.366;2023-05-07T05:09:18;10.68;;;1.90;;
31224;SDS011;17847;31.524;74.366;2023-05-07T05:11:48;11.10;;;1.88;;
31224;SDS011;17847;31.524;74.366;2023-05-07T05:14:17;9.13;;;1.90;;
31224;SDS011;17847;31.524;74.366;2023-05-07T05:16:47;5.93;;;2.10;;
31224;SDS011;17847;31.524;74.366;2023-05-07T05:19:16;7.65;;;2.33;;
31224;SDS011;17847;31.524;74.366;2023-05-07T05:21:46;9.05;;;2.05;;
31224;SDS011;17847;31.524;74.366;2023-05-07T05:24:16;9.35;;;2.15;;
31224;SDS011;17847;31.524;74.366;2023-05-07T05:26:45;4.90;;;2.13;;
31224;SDS011;17847;31.524;74.366;2023-05-07T05:29:15;5.05;;;2.30;;
31224;SDS011;17847;31.524;74.366;2023-05-07T05:31:44;5.90;;;2.47;;
31224;SDS011;17847;31.524;74.366;2023-05-07T05:34:14;7.78;;;2.55;;
31224;SDS011;17847;31.524;74.366;2023-05-07T05:36:43;7.22;;;2.22;;
31224;SDS011;17847;31.524;74.366;2023-05-07T05:39:14;3.92;;;2.20;;
31224;SDS011;17847;31.524;74.366;2023-05-07T05:41:44;4.28;;;1.88;;
31224;SDS011;17847;31.524;74.366;2023-05-07T05:44:13;4.47;;;2.13;;
31224;SDS011;17847;31.524;74.366;2023-05-07T05:46:43;6.22;;;2.15;;
31224;SDS011;17847;31.524;74.366;2023-05-07T05:49:13;5.68;;;1.95;;
31224;SDS011;17847;31.524;74.366;2023-05-07T05:51:43;4.53;;;2.08;;
31224;SDS011;17847;31.524;74.366;2023-05-07T05:54:13;7.80;;;1.88;;
31224;SDS011;17847;31.524;74.366;2023-05-07T05:56:43;8.18;;;1.70;;
31224;SDS011;17847;31.524;74.366;2023-05-07T05:59:13;4.78;;;1.83;;
31224;SDS011;17847;31.524;74.366;2023-05-07T06:01:44;9.65;;;2.03;;
31224;SDS011;17847;31.524;74.366;2023-05-07T06:04:13;5.18;;;2.22;;
31224;SDS011;17847;31.524;74.366;2023-05-07T06:06:43;6.07;;;2.15;;
31224;SDS011;17847;31.524;74.366;2023-05-07T06:09:13;5.90;;;2.05;;
31224;SDS011;17847;31.524;74.366;2023-05-07T06:11:43;3.58;;;1.77;;
31224;SDS011;17847;31.524;74.366;2023-05-07T06:14:14;6.07;;;1.90;;
31224;SDS011;17847;31.524;74.366;2023-05-07T06:16:43;8.73;;;2.50;;
31224;SDS011;17847;31.524;74.366;2023-05-07T06:19:13;13.15;;;2.80;;
31224;SDS011;17847;31.524;74.366;2023-05-07T06:21:43;5.72;;;2.33;;
31224;SDS011;17847;31.524;74.366;2023-05-07T06:24:12;4.57;;;2.22;;
31224;SDS011;17847;31.524;74.366;2023-05-07T06:26:42;6.50;;;2.40;;
31224;SDS011;17847;31.524;74.366;2023-05-07T06:29:18;6.35;;;2.22;;
31224;SDS011;17847;31.524;74.366;2023-05-07T06:31:48;6.20;;;2.53;;
31224;SDS011;17847;31.524;74.366;2023-05-07T06:34:22;10.70;;;3.85;;
31224;SDS011;17847;31.524;74.366;2023-05-07T06:36:52;8.70;;;3.17;;
31224;SDS011;17847;31.524;74.366;2023-05-07T06:39:39;14.30;;;2.80;;
31224;SDS011;17847;31.524;74.366;2023-05-07T06:42:09;6.60;;;3.00;;
31224;SDS011;17847;31.524;74.366;2023-05-07T06:44:41;11.38;;;2.80;;
31224;SDS011;17847;31.524;74.366;2023-05-07T06:47:13;5.75;;;2.58;;
31224;SDS011;17847;31.524;74.366;2023-05-07T06:49:46;5.97;;;2.50;;
31224;SDS011;17847;31.524;74.366;2023-05-07T06:52:18;5.28;;;2.20;;
31224;SDS011;17847;31.524;74.366;2023-05-07T06:54:49;7.22;;;2.55;;
31224;SDS011;17847;31.524;74.366;2023-05-07T06:57:21;6.47;;;2.28;;
31224;SDS011;17847;31.524;74.366;2023-05-07T06:59:51;5.32;;;2.90;;
31224;SDS011;17847;31.524;74.366;2023-05-07T07:02:25;7.20;;;2.75;;
31224;SDS011;17847;31.524;74.366;2023-05-07T07:04:55;6.53;;;2.70;;
31224;SDS011;17847;31.524;74.366;2023-05-07T07:07:24;13.45;;;2.72;;
31224;SDS011;17847;31.524;74.366;2023-05-07T07:09:54;9.20;;;2.58;;
31224;SDS011;17847;31.524;74.366;2023-05-07T07:12:24;6.65;;;2.90;;
31224;SDS011;17847;31.524;74.366;2023-05-07T07:14:54;8.13;;;2.58;;
31224;SDS011;17847;31.524;74.366;2023-05-07T07:17:24;7.47;;;2.80;;
31224;SDS011;17847;31.524;74.366;2023-05-07T07:19:54;5.22;;;2.45;;
31224;SDS011;17847;31.524;74.366;2023-05-07T07:22:24;8.35;;;2.83;;
31224;SDS011;17847;31.524;74.366;2023-05-07T07:24:53;10.38;;;2.88;;
31224;SDS011;17847;31.524;74.366;2023-05-07T07:27:24;9.32;;;3.60;;
31224;SDS011;17847;31.524;74.366;2023-05-07T07:29:53;5.85;;;2.70;;
31224;SDS011;17847;31.524;74.366;2023-05-07T07:32:23;15.18;;;2.90;;
31224;SDS011;17847;31.524;74.366;2023-05-07T07:34:54;12.82;;;2.90;;
31224;SDS011;17847;31.524;74.366;2023-05-07T07:37:23;6.93;;;2.42;;
31224;SDS011;17847;31.524;74.366;2023-05-07T07:39:54;6.93;;;2.97;;
31224;SDS011;17847;31.524;74.366;2023-05-07T07:42:25;8.23;;;2.78;;
31224;SDS011;17847;31.524;74.366;2023-05-07T07:44:55;6.68;;;2.33;;
31224;SDS011;17847;31.524;74.366;2023-05-07T07:47:28;6.07;;;2.58;;
31224;SDS011;17847;31.524;74.366;2023-05-07T07:49:58;10.05;;;2.38;;
31224;SDS011;17847;31.524;74.366;2023-05-07T07:52:28;11.30;;;3.00;;
31224;SDS011;17847;31.524;74.366;2023-05-07T07:54:57;7.05;;;2.35;;
31224;SDS011;17847;31.524;74.366;2023-05-07T07:57:27;8.20;;;2.25;;
31224;SDS011;17847;31.524;74.366;2023-05-07T07:59:57;8.15;;;2.25;;
31224;SDS011;17847;31.524;74.366;2023-05-07T08:02:28;4.55;;;2.08;;
31224;SDS011;17847;31.524;74.366;2023-05-07T08:04:58;7.35;;;2.45;;
31224;SDS011;17847;31.524;74.366;2023-05-07T08:07:27;5.15;;;2.13;;
31224;SDS011;17847;31.524;74.366;2023-05-07T08:09:56;13.13;;;3.22;;
31224;SDS011;17847;31.524;74.366;2023-05-07T08:12:28;7.15;;;2.30;;
31224;SDS011;17847;31.524;74.366;2023-05-07T08:14:58;9.95;;;2.53;;
31224;SDS011;17847;31.524;74.366;2023-05-07T08:17:28;8.95;;;2.42;;
31224;SDS011;17847;31.524;74.366;2023-05-07T08:19:58;9.55;;;2.70;;
31224;SDS011;17847;31.524;74.366;2023-05-07T08:22:28;5.22;;;2.10;;
31224;SDS011;17847;31.524;74.366;2023-05-07T08:25:02;8.38;;;2.40;;
31224;SDS011;17847;31.524;74.366;2023-05-07T08:27:32;10.50;;;2.35;;
31224;SDS011;17847;31.524;74.366;2023-05-07T08:30:02;9.88;;;2.50;;
31224;SDS011;17847;31.524;74.366;2023-05-07T08:32:32;7.97;;;2.78;;
31224;SDS011;17847;31.524;74.366;2023-05-07T08:35:01;8.93;;;2.63;;
31224;SDS011;17847;31.524;74.366;2023-05-07T08:37:32;6.72;;;2.75;;
31224;SDS011;17847;31.524;74.366;2023-05-07T08:40:01;9.75;;;2.40;;
31224;SDS011;17847;31.524;74.366;2023-05-07T08:42:36;13.00;;;2.67;;
31224;SDS011;17847;31.524;74.366;2023-05-07T08:45:09;7.80;;;3.13;;
31224;SDS011;17847;31.524;74.366;2023-05-07T08:47:43;13.45;;;2.75;;
31224;SDS011;17847;31.524;74.366;2023-05-07T08:50:17;6.07;;;2.13;;
31224;SDS011;17847;31.524;74.366;2023-05-07T08:52:48;8.27;;;2.83;;
31224;SDS011;17847;31.524;74.366;2023-05-07T08:55:22;5.93;;;2.38;;
31224;SDS011;17847;31.524;74.366;2023-05-07T08:57:53;8.52;;;2.97;;
31224;SDS011;17847;31.524;74.366;2023-05-07T09:00:23;9.45;;;2.67;;
31224;SDS011;17847;31.524;74.366;2023-05-07T09:02:54;8.13;;;2.92;;
31224;SDS011;17847;31.524;74.366;2023-05-07T09:05:24;11.32;;;3.55;;
31224;SDS011;17847;31.524;74.366;2023-05-07T09:07:54;13.68;;;3.08;;
31224;SDS011;17847;31.524;74.366;2023-05-07T09:10:25;13.30;;;2.92;;
31224;SDS011;17847;31.524;74.366;2023-05-07T09:12:55;8.85;;;3.03;;
31224;SDS011;17847;31.524;74.366;2023-05-07T09:15:25;6.35;;;2.50;;
31224;SDS011;17847;31.524;74.366;2023-05-07T09:17:59;5.32;;;2.92;;
31224;SDS011;17847;31.524;74.366;2023-05-07T09:20:32;11.48;;;2.88;;
31224;SDS011;17847;31.524;74.366;2023-05-07T09:23:02;4.88;;;2.55;;
31224;SDS011;17847;31.524;74.366;2023-05-07T09:25:32;9.02;;;2.72;;
31224;SDS011;17847;31.524;74.366;2023-05-07T09:28:09;8.98;;;3.10;;
31224;SDS011;17847;31.524;74.366;2023-05-07T09:30:40;8.55;;;3.95;;
31224;SDS011;17847;31.524;74.366;2023-05-07T09:33:11;5.60;;;2.80;;
31224;SDS011;17847;31.524;74.366;2023-05-07T09:35:45;9.57;;;2.67;;
31224;SDS011;17847;31.524;74.366;2023-05-07T09:38:17;11.88;;;3.13;;
31224;SDS011;17847;31.524;74.366;2023-05-07T09:44:01;12.23;;;3.38;;
31224;SDS011;17847;31.524;74.366;2023-05-07T09:46:38;8.95;;;3.47;;
31224;SDS011;17847;31.524;74.366;2023-05-07T09:49:23;8.20;;;3.50;;
31224;SDS011;17847;31.524;74.366;2023-05-07T09:52:00;6.90;;;3.25;;
31224;SDS011;17847;31.524;74.366;2023-05-07T09:54:33;10.15;;;3.53;;
31224;SDS011;17847;31.524;74.366;2023-05-07T09:57:07;10.48;;;3.45;;
31224;SDS011;17847;31.524;74.366;2023-05-07T09:59:39;9.38;;;3.42;;
31224;SDS011;17847;31.524;74.366;2023-05-07T10:02:15;10.27;;;4.20;;
31224;SDS011;17847;31.524;74.366;2023-05-07T10:04:52;11.80;;;3.20;;
31224;SDS011;17847;31.524;74.366;2023-05-07T10:07:28;5.32;;;2.70;;
31224;SDS011;17847;31.524;74.366;2023-05-07T10:10:04;6.57;;;3.72;;
31224;SDS011;17847;31.524;74.366;2023-05-07T10:12:40;8.15;;;3.28;;
31224;SDS011;17847;31.524;74.366;2023-05-07T10:15:16;6.25;;;3.28;;
31224;SDS011;17847;31.524;74.366;2023-05-07T10:17:50;8.95;;;3.53;;
31224;SDS011;17847;31.524;74.366;2023-05-07T10:20:23;7.85;;;4.10;;
31224;SDS011;17847;31.524;74.366;2023-05-07T10:22:55;19.85;;;4.72;;
31224;SDS011;17847;31.524;74.366;2023-05-07T10:25:34;9.50;;;3.40;;
31224;SDS011;17847;31.524;74.366;2023-05-07T10:28:11;11.32;;;4.22;;
31224;SDS011;17847;31.524;74.366;2023-05-07T10:30:57;6.30;;;3.00;;
31224;SDS011;17847;31.524;74.366;2023-05-07T10:33:38;10.25;;;3.33;;
31224;SDS011;17847;31.524;74.366;2023-05-07T10:36:09;9.00;;;3.83;;
31224;SDS011;17847;31.524;74.366;2023-05-07T10:38:39;9.50;;;3.05;;
31224;SDS011;17847;31.524;74.366;2023-05-07T10:41:09;5.82;;;2.92;;
31224;SDS011;17847;31.524;74.366;2023-05-07T10:43:42;8.35;;;3.40;;
31224;SDS011;17847;31.524;74.366;2023-05-07T10:46:28;8.65;;;3.50;;
31224;SDS011;17847;31.524;74.366;2023-05-07T10:49:12;9.57;;;3.60;;
31224;SDS011;17847;31.524;74.366;2023-05-07T10:55:22;8.93;;;3.42;;
31224;SDS011;17847;31.524;74.366;2023-05-07T10:58:48;7.10;;;3.70;;
31224;SDS011;17847;31.524;74.366;2023-05-07T11:04:30;9.55;;;3.50;;
31224;SDS011;17847;31.524;74.366;2023-05-07T11:07:25;9.57;;;3.15;;
31224;SDS011;17847;31.524;74.366;2023-05-07T11:12:54;12.15;;;3.25;;
31224;SDS011;17847;31.524;74.366;2023-05-07T11:18:16;7.70;;;3.15;;
31224;SDS011;17847;31.524;74.366;2023-05-07T11:26:27;7.25;;;3.10;;
31224;SDS011;17847;31.524;74.366;2023-05-07T11:28:59;10.35;;;3.60;;
31224;SDS011;17847;31.524;74.366;2023-05-07T11:31:29;12.15;;;3.40;;
31224;SDS011;17847;31.524;74.366;2023-05-07T11:34:00;9.15;;;3.55;;
31224;SDS011;17847;31.524;74.366;2023-05-07T11:36:31;19.20;;;3.72;;
31224;SDS011;17847;31.524;74.366;2023-05-07T11:39:05;10.48;;;3.40;;
31224;SDS011;17847;31.524;74.366;2023-05-07T11:41:36;8.45;;;3.60;;
31224;SDS011;17847;31.524;74.366;2023-05-07T11:44:06;8.25;;;3.60;;
31224;SDS011;17847;31.524;74.366;2023-05-07T11:46:35;9.15;;;3.65;;
31224;SDS011;17847;31.524;74.366;2023-05-07T11:49:04;7.75;;;3.08;;
31224;SDS011;17847;31.524;74.366;2023-05-07T11:51:35;7.75;;;2.95;;
31224;SDS011;17847;31.524;74.366;2023-05-07T11:54:05;12.90;;;3.33;;
31224;SDS011;17847;31.524;74.366;2023-05-07T11:56:40;12.00;;;3.28;;
31224;SDS011;17847;31.524;74.366;2023-05-07T11:59:09;12.63;;;4.10;;
31224;SDS011;17847;31.524;74.366;2023-05-07T12:01:38;12.57;;;3.45;;
31224;SDS011;17847;31.524;74.366;2023-05-07T12:04:10;9.85;;;3.47;;
31224;SDS011;17847;31.524;74.366;2023-05-07T12:06:40;6.93;;;3.10;;
31224;SDS011;17847;31.524;74.366;2023-05-07T12:09:10;6.65;;;3.08;;
31224;SDS011;17847;31.524;74.366;2023-05-07T12:11:39;9.43;;;3.60;;
31224;SDS011;17847;31.524;74.366;2023-05-07T12:14:14;7.50;;;3.75;;
31224;SDS011;17847;31.524;74.366;2023-05-07T12:16:46;12.23;;;3.65;;
31224;SDS011;17847;31.524;74.366;2023-05-07T12:19:16;9.38;;;3.20;;
31224;SDS011;17847;31.524;74.366;2023-05-07T12:21:46;10.55;;;3.13;;
31224;SDS011;17847;31.524;74.366;2023-05-07T12:24:16;9.85;;;3.30;;
31224;SDS011;17847;31.524;74.366;2023-05-07T12:26:48;10.50;;;3.15;;
31224;SDS011;17847;31.524;74.366;2023-05-07T12:29:21;18.48;;;3.30;;
31224;SDS011;17847;31.524;74.366;2023-05-07T12:31:51;8.32;;;3.47;;
31224;SDS011;17847;31.524;74.366;2023-05-07T12:34:21;7.40;;;3.10;;
31224;SDS011;17847;31.524;74.366;2023-05-07T12:36:51;9.55;;;3.90;;
31224;SDS011;17847;31.524;74.366;2023-05-07T12:39:22;14.30;;;3.40;;
31224;SDS011;17847;31.524;74.366;2023-05-07T12:41:58;10.60;;;3.63;;
31224;SDS011;17847;31.524;74.366;2023-05-07T12:44:31;13.13;;;3.85;;
31224;SDS011;17847;31.524;74.366;2023-05-07T12:47:02;11.13;;;3.50;;
31224;SDS011;17847;31.524;74.366;2023-05-07T12:49:33;15.13;;;3.67;;
31224;SDS011;17847;31.524;74.366;2023-05-07T12:52:09;12.23;;;3.40;;
31224;SDS011;17847;31.524;74.366;2023-05-07T12:54:40;14.52;;;3.35;;
31224;SDS011;17847;31.524;74.366;2023-05-07T12:57:10;9.68;;;3.50;;
31224;SDS011;17847;31.524;74.366;2023-05-07T12:59:40;16.00;;;4.07;;
31224;SDS011;17847;31.524;74.366;2023-05-07T13:02:10;8.07;;;3.47;;
31224;SDS011;17847;31.524;74.366;2023-05-07T13:04:41;12.75;;;4.25;;
31224;SDS011;17847;31.524;74.366;2023-05-07T13:07:11;14.52;;;4.20;;
31224;SDS011;17847;31.524;74.366;2023-05-07T13:09:40;13.10;;;4.95;;
31224;SDS011;17847;31.524;74.366;2023-05-07T13:12:10;14.05;;;4.60;;
31224;SDS011;17847;31.524;74.366;2023-05-07T13:14:39;11.95;;;4.57;;
31224;SDS011;17847;31.524;74.366;2023-05-07T13:17:09;13.43;;;4.78;;
31224;SDS011;17847;31.524;74.366;2023-05-07T13:19:38;15.30;;;5.30;;
31224;SDS011;17847;31.524;74.366;2023-05-07T13:22:07;13.55;;;5.18;;
31224;SDS011;17847;31.524;74.366;2023-05-07T13:24:37;13.43;;;4.95;;
31224;SDS011;17847;31.524;74.366;2023-05-07T13:27:06;12.05;;;5.35;;
31224;SDS011;17847;31.524;74.366;2023-05-07T13:29:36;19.90;;;6.20;;
31224;SDS011;17847;31.524;74.366;2023-05-07T13:32:05;12.10;;;5.30;;
31224;SDS011;17847;31.524;74.366;2023-05-07T13:34:34;14.70;;;5.72;;
31224;SDS011;17847;31.524;74.366;2023-05-07T13:37:05;15.00;;;5.65;;
31224;SDS011;17847;31.524;74.366;2023-05-07T13:39:37;19.30;;;5.18;;
31224;SDS011;17847;31.524;74.366;2023-05-07T13:42:07;16.08;;;6.25;;
31224;SDS011;17847;31.524;74.366;2023-05-07T13:44:36;19.15;;;6.35;;
31224;SDS011;17847;31.524;74.366;2023-05-07T13:47:05;13.48;;;5.53;;
31224;SDS011;17847;31.524;74.366;2023-05-07T13:49:35;15.82;;;5.93;;
31224;SDS011;17847;31.524;74.366;2023-05-07T13:52:04;22.27;;;6.40;;
31224;SDS011;17847;31.524;74.366;2023-05-07T13:54:33;22.50;;;6.40;;
31224;SDS011;17847;31.524;74.366;2023-05-07T13:57:03;15.27;;;6.03;;
31224;SDS011;17847;31.524;74.366;2023-05-07T13:59:32;15.93;;;6.70;;
31224;SDS011;17847;31.524;74.366;2023-05-07T14:02:02;15.77;;;6.72;;
31224;SDS011;17847;31.524;74.366;2023-05-07T14:04:31;12.75;;;5.93;;
31224;SDS011;17847;31.524;74.366;2023-05-07T14:07:00;16.83;;;6.65;;
31224;SDS011;17847;31.524;74.366;2023-05-07T14:09:30;20.90;;;7.05;;
31224;SDS011;17847;31.524;74.366;2023-05-07T14:11:59;16.33;;;6.57;;
31224;SDS011;17847;31.524;74.366;2023-05-07T14:14:29;16.80;;;7.00;;
31224;SDS011;17847;31.524;74.366;2023-05-07T14:16:58;25.38;;;7.20;;
31224;SDS011;17847;31.524;74.366;2023-05-07T14:19:28;20.15;;;7.20;;
31224;SDS011;17847;31.524;74.366;2023-05-07T14:22:01;14.93;;;7.93;;
31224;SDS011;17847;31.524;74.366;2023-05-07T14:24:31;17.20;;;8.23;;
31224;SDS011;17847;31.524;74.366;2023-05-07T14:27:05;15.25;;;8.35;;
31224;SDS011;17847;31.524;74.366;2023-05-07T14:29:35;22.15;;;9.80;;
31224;SDS011;17847;31.524;74.366;2023-05-07T14:32:04;26.15;;;12.32;;
31224;SDS011;17847;31.524;74.366;2023-05-07T14:34:34;24.25;;;11.18;;
31224;SDS011;17847;31.524;74.366;2023-05-07T14:37:03;21.00;;;10.93;;
31224;SDS011;17847;31.524;74.366;2023-05-07T14:39:33;24.27;;;10.25;;
31224;SDS011;17847;31.524;74.366;2023-05-07T14:42:02;25.67;;;9.43;;
31224;SDS011;17847;31.524;74.366;2023-05-07T14:44:32;19.20;;;8.50;;
31224;SDS011;17847;31.524;74.366;2023-05-07T14:47:03;20.55;;;8.25;;
31224;SDS011;17847;31.524;74.366;2023-05-07T14:49:33;15.75;;;7.40;;
31224;SDS011;17847;31.524;74.366;2023-05-07T14:52:05;17.65;;;7.13;;
31224;SDS011;17847;31.524;74.366;2023-05-07T14:54:36;17.13;;;7.10;;
31224;SDS011;17847;31.524;74.366;2023-05-07T14:57:08;14.57;;;6.38;;
31224;SDS011;17847;31.524;74.366;2023-05-07T14:59:38;15.73;;;6.20;;
31224;SDS011;17847;31.524;74.366;2023-05-07T15:02:08;14.85;;;6.20;;
31224;SDS011;17847;31.524;74.366;2023-05-07T15:04:39;13.63;;;6.03;;
31224;SDS011;17847;31.524;74.366;2023-05-07T15:07:14;28.88;;;6.60;;
31224;SDS011;17847;31.524;74.366;2023-05-07T15:09:44;16.70;;;6.57;;
31224;SDS011;17847;31.524;74.366;2023-05-07T15:12:14;17.20;;;6.25;;
31224;SDS011;17847;31.524;74.366;2023-05-07T15:14:44;16.08;;;5.57;;